sensor_id;sensor_type;location;lat;lon;timestamp;temperature;humidity
76384;SHT30;65204;48.606;7.598;2023-12-20T00:00:19;8.65;73.69
76384;SHT30;65204;48.606;7.598;2023-12-20T00:00:50;8.70;73.71
76384;SHT30;65204;48.606;7.598;2023-12-20T00:01:21;8.67;73.82
76384;SHT30;65204;48.606;7.598;2023-12-20T00:01:52;8.70;73.72
76384;SHT30;65204;48.606;7.598;2023-12-20T00:02:22;8.68;73.71
76384;SHT30;65204;48.606;7.598;2023-12-20T00:02:53;8.70;73.74
76384;SHT30;65204;48.606;7.598;2023-12-20T00:03:23;8.70;73.91
76384;SHT30;65204;48.606;7.598;2023-12-20T00:03:54;8.67;73.88
76384;SHT30;65204;48.606;7.598;2023-12-20T00:04:24;8.63;73.91
76384;SHT30;65204;48.606;7.598;2023-12-20T00:04:54;8.67;73.84
76384;SHT30;65204;48.606;7.598;2023-12-20T00:05:25;8.68;73.87
76384;SHT30;65204;48.606;7.598;2023-12-20T00:05:55;8.68;73.83
76384;SHT30;65204;48.606;7.598;2023-12-20T00:06:26;8.67;73.84
76384;SHT30;65204;48.606;7.598;2023-12-20T00:06:56;8.65;73.92
76384;SHT30;65204;48.606;7.598;2023-12-20T00:07:26;8.65;73.91
76384;SHT30;65204;48.606;7.598;2023-12-20T00:07:57;8.65;73.88
76384;SHT30;65204;48.606;7.598;2023-12-20T00:08:27;8.65;73.96
76384;SHT30;65204;48.606;7.598;2023-12-20T00:08:58;8.64;73.97
76384;SHT30;65204;48.606;7.598;2023-12-20T00:09:28;8.60;74.10
76384;SHT30;65204;48.606;7.598;2023-12-20T00:09:59;8.60;74.15
76384;SHT30;65204;48.606;7.598;2023-12-20T00:10:29;8.60;74.23
76384;SHT30;65204;48.606;7.598;2023-12-20T00:10:59;8.60;74.27
76384;SHT30;65204;48.606;7.598;2023-12-20T00:11:30;8.58;74.28
76384;SHT30;65204;48.606;7.598;2023-12-20T00:12:00;8.60;74.30
76384;SHT30;65204;48.606;7.598;2023-12-20T00:12:30;8.63;74.26
76384;SHT30;65204;48.606;7.598;2023-12-20T00:13:01;8.63;74.26
76384;SHT30;65204;48.606;7.598;2023-12-20T00:13:31;8.63;74.16
76384;SHT30;65204;48.606;7.598;2023-12-20T00:14:01;8.64;74.22
76384;SHT30;65204;48.606;7.598;2023-12-20T00:14:32;8.65;74.15
76384;SHT30;65204;48.606;7.598;2023-12-20T00:15:02;8.63;74.18
76384;SHT30;65204;48.606;7.598;2023-12-20T00:15:36;8.67;74.18
76384;SHT30;65204;48.606;7.598;2023-12-20T00:16:06;8.63;74.33
76384;SHT30;65204;48.606;7.598;2023-12-20T00:16:36;8.61;74.37
76384;SHT30;65204;48.606;7.598;2023-12-20T00:17:07;8.61;74.40
76384;SHT30;65204;48.606;7.598;2023-12-20T00:17:38;8.64;74.28
76384;SHT30;65204;48.606;7.598;2023-12-20T00:18:08;8.61;74.36
76384;SHT30;65204;48.606;7.598;2023-12-20T00:18:38;8.61;74.34
76384;SHT30;65204;48.606;7.598;2023-12-20T00:19:09;8.63;74.32
76384;SHT30;65204;48.606;7.598;2023-12-20T00:19:39;8.65;74.28
76384;SHT30;65204;48.606;7.598;2023-12-20T00:20:10;8.68;74.27
76384;SHT30;65204;48.606;7.598;2023-12-20T00:20:41;8.61;74.37
76384;SHT30;65204;48.606;7.598;2023-12-20T00:21:11;8.68;74.31
76384;SHT30;65204;48.606;7.598;2023-12-20T00:21:42;8.70;74.23
76384;SHT30;65204;48.606;7.598;2023-12-20T00:22:12;8.65;74.25
76384;SHT30;65204;48.606;7.598;2023-12-20T00:22:43;8.70;74.28
76384;SHT30;65204;48.606;7.598;2023-12-20T00:23:13;8.70;74.23
76384;SHT30;65204;48.606;7.598;2023-12-20T00:23:43;8.67;74.22
76384;SHT30;65204;48.606;7.598;2023-12-20T00:24:14;8.68;74.19
76384;SHT30;65204;48.606;7.598;2023-12-20T00:24:44;8.72;74.17
76384;SHT30;65204;48.606;7.598;2023-12-20T00:25:14;8.70;74.22
76384;SHT30;65204;48.606;7.598;2023-12-20T00:25:45;8.71;74.29
76384;SHT30;65204;48.606;7.598;2023-12-20T00:26:15;8.72;74.24
76384;SHT30;65204;48.606;7.598;2023-12-20T00:26:45;8.74;74.17
76384;SHT30;65204;48.606;7.598;2023-12-20T00:27:16;8.71;74.19
76384;SHT30;65204;48.606;7.598;2023-12-20T00:27:47;8.72;74.15
76384;SHT30;65204;48.606;7.598;2023-12-20T00:28:17;8.72;74.12
76384;SHT30;65204;48.606;7.598;2023-12-20T00:28:47;8.71;74.16
76384;SHT30;65204;48.606;7.598;2023-12-20T00:29:18;8.70;74.22
76384;SHT30;65204;48.606;7.598;2023-12-20T00:29:49;8.71;74.20
76384;SHT30;65204;48.606;7.598;2023-12-20T00:30:20;8.67;74.27
76384;SHT30;65204;48.606;7.598;2023-12-20T00:30:50;8.72;74.18
76384;SHT30;65204;48.606;7.598;2023-12-20T00:31:21;8.72;74.20
76384;SHT30;65204;48.606;7.598;2023-12-20T00:31:51;8.74;74.13
76384;SHT30;65204;48.606;7.598;2023-12-20T00:32:21;8.77;74.14
76384;SHT30;65204;48.606;7.598;2023-12-20T00:32:51;8.72;74.25
76384;SHT30;65204;48.606;7.598;2023-12-20T00:33:22;8.74;74.22
76384;SHT30;65204;48.606;7.598;2023-12-20T00:33:52;8.72;74.25
76384;SHT30;65204;48.606;7.598;2023-12-20T00:34:22;8.71;74.33
76384;SHT30;65204;48.606;7.598;2023-12-20T00:34:53;8.71;74.32
76384;SHT30;65204;48.606;7.598;2023-12-20T00:35:23;8.71;74.38
76384;SHT30;65204;48.606;7.598;2023-12-20T00:35:54;8.77;74.23
76384;SHT30;65204;48.606;7.598;2023-12-20T00:36:24;8.71;74.28
76384;SHT30;65204;48.606;7.598;2023-12-20T00:36:54;8.74;74.24
76384;SHT30;65204;48.606;7.598;2023-12-20T00:37:25;8.75;74.24
76384;SHT30;65204;48.606;7.598;2023-12-20T00:37:55;8.75;74.15
76384;SHT30;65204;48.606;7.598;2023-12-20T00:38:25;8.80;74.11
76384;SHT30;65204;48.606;7.598;2023-12-20T00:38:56;8.75;74.12
76384;SHT30;65204;48.606;7.598;2023-12-20T00:39:27;8.74;74.21
76384;SHT30;65204;48.606;7.598;2023-12-20T00:39:57;8.75;74.16
76384;SHT30;65204;48.606;7.598;2023-12-20T00:40:27;8.77;74.21
76384;SHT30;65204;48.606;7.598;2023-12-20T00:40:58;8.80;74.19
76384;SHT30;65204;48.606;7.598;2023-12-20T00:41:28;8.81;74.09
76384;SHT30;65204;48.606;7.598;2023-12-20T00:41:58;8.81;74.16
76384;SHT30;65204;48.606;7.598;2023-12-20T00:42:29;8.80;74.10
76384;SHT30;65204;48.606;7.598;2023-12-20T00:42:59;8.81;74.15
76384;SHT30;65204;48.606;7.598;2023-12-20T00:43:29;8.81;74.10
76384;SHT30;65204;48.606;7.598;2023-12-20T00:44:00;8.80;74.15
76384;SHT30;65204;48.606;7.598;2023-12-20T00:44:30;8.78;74.19
76384;SHT30;65204;48.606;7.598;2023-12-20T00:45:00;8.78;74.24
76384;SHT30;65204;48.606;7.598;2023-12-20T00:45:30;8.80;74.27
76384;SHT30;65204;48.606;7.598;2023-12-20T00:46:01;8.82;74.22
76384;SHT30;65204;48.606;7.598;2023-12-20T00:46:31;8.80;74.17
76384;SHT30;65204;48.606;7.598;2023-12-20T00:47:01;8.81;74.10
76384;SHT30;65204;48.606;7.598;2023-12-20T00:47:32;8.82;74.11
76384;SHT30;65204;48.606;7.598;2023-12-20T00:48:02;8.82;74.18
76384;SHT30;65204;48.606;7.598;2023-12-20T00:48:33;8.81;74.29
76384;SHT30;65204;48.606;7.598;2023-12-20T00:49:03;8.81;74.19
76384;SHT30;65204;48.606;7.598;2023-12-20T00:49:34;8.82;74.17
76384;SHT30;65204;48.606;7.598;2023-12-20T00:50:05;8.84;74.17
76384;SHT30;65204;48.606;7.598;2023-12-20T00:50:35;8.81;74.21
76384;SHT30;65204;48.606;7.598;2023-12-20T00:51:06;8.80;74.26
76384;SHT30;65204;48.606;7.598;2023-12-20T00:51:36;8.82;74.25
76384;SHT30;65204;48.606;7.598;2023-12-20T00:52:06;8.77;74.31
76384;SHT30;65204;48.606;7.598;2023-12-20T00:52:37;8.77;74.38
76384;SHT30;65204;48.606;7.598;2023-12-20T00:53:07;8.74;74.49
76384;SHT30;65204;48.606;7.598;2023-12-20T00:53:37;8.75;74.38
76384;SHT30;65204;48.606;7.598;2023-12-20T00:54:08;8.77;74.37
76384;SHT30;65204;48.606;7.598;2023-12-20T00:54:39;8.77;74.33
76384;SHT30;65204;48.606;7.598;2023-12-20T00:55:09;8.77;74.29
76384;SHT30;65204;48.606;7.598;2023-12-20T00:55:40;8.80;74.40
76384;SHT30;65204;48.606;7.598;2023-12-20T00:56:10;8.78;74.38
76384;SHT30;65204;48.606;7.598;2023-12-20T00:56:41;8.80;74.38
76384;SHT30;65204;48.606;7.598;2023-12-20T00:57:11;8.81;74.44
76384;SHT30;65204;48.606;7.598;2023-12-20T00:57:41;8.80;74.45
76384;SHT30;65204;48.606;7.598;2023-12-20T00:58:12;8.80;74.42
76384;SHT30;65204;48.606;7.598;2023-12-20T00:58:42;8.82;74.44
76384;SHT30;65204;48.606;7.598;2023-12-20T00:59:12;8.81;74.38
76384;SHT30;65204;48.606;7.598;2023-12-20T00:59:43;8.81;74.44
76384;SHT30;65204;48.606;7.598;2023-12-20T01:00:13;8.81;74.51
76384;SHT30;65204;48.606;7.598;2023-12-20T01:00:44;8.80;74.57
76384;SHT30;65204;48.606;7.598;2023-12-20T01:01:15;8.77;74.66
76384;SHT30;65204;48.606;7.598;2023-12-20T01:01:45;8.75;74.63
76384;SHT30;65204;48.606;7.598;2023-12-20T01:02:15;8.75;74.65
76384;SHT30;65204;48.606;7.598;2023-12-20T01:02:46;8.74;74.80
76384;SHT30;65204;48.606;7.598;2023-12-20T01:03:19;8.72;74.80
76384;SHT30;65204;48.606;7.598;2023-12-20T01:03:49;8.74;74.86
76384;SHT30;65204;48.606;7.598;2023-12-20T01:04:21;8.75;74.76
76384;SHT30;65204;48.606;7.598;2023-12-20T01:04:51;8.75;74.82
76384;SHT30;65204;48.606;7.598;2023-12-20T01:05:22;8.77;74.71
76384;SHT30;65204;48.606;7.598;2023-12-20T01:05:55;8.77;74.81
76384;SHT30;65204;48.606;7.598;2023-12-20T01:06:25;8.78;74.78
76384;SHT30;65204;48.606;7.598;2023-12-20T01:06:55;8.77;74.73
76384;SHT30;65204;48.606;7.598;2023-12-20T01:07:26;8.80;74.70
76384;SHT30;65204;48.606;7.598;2023-12-20T01:07:56;8.78;74.80
76384;SHT30;65204;48.606;7.598;2023-12-20T01:08:26;8.77;74.87
76384;SHT30;65204;48.606;7.598;2023-12-20T01:08:56;8.78;74.80
76384;SHT30;65204;48.606;7.598;2023-12-20T01:09:27;8.77;74.76
76384;SHT30;65204;48.606;7.598;2023-12-20T01:09:57;8.78;74.84
76384;SHT30;65204;48.606;7.598;2023-12-20T01:10:28;8.74;74.88
76384;SHT30;65204;48.606;7.598;2023-12-20T01:10:59;8.77;74.88
76384;SHT30;65204;48.606;7.598;2023-12-20T01:11:29;8.77;74.79
76384;SHT30;65204;48.606;7.598;2023-12-20T01:12:00;8.80;74.71
76384;SHT30;65204;48.606;7.598;2023-12-20T01:12:30;8.82;74.71
76384;SHT30;65204;48.606;7.598;2023-12-20T01:13:00;8.80;74.78
76384;SHT30;65204;48.606;7.598;2023-12-20T01:13:31;8.82;74.70
76384;SHT30;65204;48.606;7.598;2023-12-20T01:14:01;8.80;74.73
76384;SHT30;65204;48.606;7.598;2023-12-20T01:14:31;8.84;74.77
76384;SHT30;65204;48.606;7.598;2023-12-20T01:15:02;8.85;74.71
76384;SHT30;65204;48.606;7.598;2023-12-20T01:15:32;8.84;74.84
76384;SHT30;65204;48.606;7.598;2023-12-20T01:16:03;8.85;74.78
76384;SHT30;65204;48.606;7.598;2023-12-20T01:16:34;8.89;74.67
76384;SHT30;65204;48.606;7.598;2023-12-20T01:17:04;8.88;74.71
76384;SHT30;65204;48.606;7.598;2023-12-20T01:17:35;8.87;74.64
76384;SHT30;65204;48.606;7.598;2023-12-20T01:18:05;8.85;74.78
76384;SHT30;65204;48.606;7.598;2023-12-20T01:18:36;8.81;74.93
76384;SHT30;65204;48.606;7.598;2023-12-20T01:19:06;8.82;74.96
76384;SHT30;65204;48.606;7.598;2023-12-20T01:19:36;8.81;75.01
76384;SHT30;65204;48.606;7.598;2023-12-20T01:20:07;8.82;74.97
76384;SHT30;65204;48.606;7.598;2023-12-20T01:20:38;8.82;75.04
76384;SHT30;65204;48.606;7.598;2023-12-20T01:21:08;8.80;75.02
76384;SHT30;65204;48.606;7.598;2023-12-20T01:21:39;8.81;75.05
76384;SHT30;65204;48.606;7.598;2023-12-20T01:22:10;8.81;75.09
76384;SHT30;65204;48.606;7.598;2023-12-20T01:22:40;8.80;75.23
76384;SHT30;65204;48.606;7.598;2023-12-20T01:23:12;8.80;75.16
76384;SHT30;65204;48.606;7.598;2023-12-20T01:23:43;8.78;75.13
76384;SHT30;65204;48.606;7.598;2023-12-20T01:24:13;8.80;75.22
76384;SHT30;65204;48.606;7.598;2023-12-20T01:24:43;8.78;75.34
76384;SHT30;65204;48.606;7.598;2023-12-20T01:25:14;8.78;75.26
76384;SHT30;65204;48.606;7.598;2023-12-20T01:25:44;8.81;75.12
76384;SHT30;65204;48.606;7.598;2023-12-20T01:26:15;8.82;75.18
76384;SHT30;65204;48.606;7.598;2023-12-20T01:26:45;8.84;75.17
76384;SHT30;65204;48.606;7.598;2023-12-20T01:27:15;8.88;75.04
76384;SHT30;65204;48.606;7.598;2023-12-20T01:27:46;8.92;75.03
76384;SHT30;65204;48.606;7.598;2023-12-20T01:28:16;8.87;75.09
76384;SHT30;65204;48.606;7.598;2023-12-20T01:28:47;8.89;75.05
76384;SHT30;65204;48.606;7.598;2023-12-20T01:29:17;8.85;75.20
76384;SHT30;65204;48.606;7.598;2023-12-20T01:29:48;8.84;75.21
76384;SHT30;65204;48.606;7.598;2023-12-20T01:30:18;8.85;75.19
76384;SHT30;65204;48.606;7.598;2023-12-20T01:30:49;8.85;75.16
76384;SHT30;65204;48.606;7.598;2023-12-20T01:31:19;8.91;75.10
76384;SHT30;65204;48.606;7.598;2023-12-20T01:31:50;8.91;75.03
76384;SHT30;65204;48.606;7.598;2023-12-20T01:32:20;8.95;74.96
76384;SHT30;65204;48.606;7.598;2023-12-20T01:32:50;8.92;74.96
76384;SHT30;65204;48.606;7.598;2023-12-20T01:33:20;8.93;74.95
76384;SHT30;65204;48.606;7.598;2023-12-20T01:33:51;8.95;74.87
76384;SHT30;65204;48.606;7.598;2023-12-20T01:34:21;8.98;74.87
76384;SHT30;65204;48.606;7.598;2023-12-20T01:34:51;8.93;74.93
76384;SHT30;65204;48.606;7.598;2023-12-20T01:35:22;8.95;74.89
76384;SHT30;65204;48.606;7.598;2023-12-20T01:35:52;8.89;75.05
76384;SHT30;65204;48.606;7.598;2023-12-20T01:36:23;8.87;75.21
76384;SHT30;65204;48.606;7.598;2023-12-20T01:36:53;8.87;75.19
76384;SHT30;65204;48.606;7.598;2023-12-20T01:37:23;8.89;75.16
76384;SHT30;65204;48.606;7.598;2023-12-20T01:37:55;8.91;75.10
76384;SHT30;65204;48.606;7.598;2023-12-20T01:38:26;8.95;75.02
76384;SHT30;65204;48.606;7.598;2023-12-20T01:38:57;8.93;74.96
76384;SHT30;65204;48.606;7.598;2023-12-20T01:39:27;8.98;74.97
76384;SHT30;65204;48.606;7.598;2023-12-20T01:39:57;9.00;74.92
76384;SHT30;65204;48.606;7.598;2023-12-20T01:40:28;8.98;74.98
76384;SHT30;65204;48.606;7.598;2023-12-20T01:40:59;8.98;74.90
76384;SHT30;65204;48.606;7.598;2023-12-20T01:41:30;8.97;74.97
76384;SHT30;65204;48.606;7.598;2023-12-20T01:42:00;8.95;75.08
76384;SHT30;65204;48.606;7.598;2023-12-20T01:42:30;8.95;75.08
76384;SHT30;65204;48.606;7.598;2023-12-20T01:43:10;8.97;75.02
76384;SHT30;65204;48.606;7.598;2023-12-20T01:43:42;8.95;75.11
76384;SHT30;65204;48.606;7.598;2023-12-20T01:44:12;8.93;75.16
76384;SHT30;65204;48.606;7.598;2023-12-20T01:44:43;8.93;75.24
76384;SHT30;65204;48.606;7.598;2023-12-20T01:45:13;8.95;75.17
76384;SHT30;65204;48.606;7.598;2023-12-20T01:45:44;8.92;75.22
76384;SHT30;65204;48.606;7.598;2023-12-20T01:46:14;8.92;75.30
76384;SHT30;65204;48.606;7.598;2023-12-20T01:46:46;8.97;75.18
76384;SHT30;65204;48.606;7.598;2023-12-20T01:47:17;8.95;75.26
76384;SHT30;65204;48.606;7.598;2023-12-20T01:47:47;8.95;75.28
76384;SHT30;65204;48.606;7.598;2023-12-20T01:48:18;8.93;75.27
76384;SHT30;65204;48.606;7.598;2023-12-20T01:48:48;8.95;75.31
76384;SHT30;65204;48.606;7.598;2023-12-20T01:49:19;9.00;75.27
76384;SHT30;65204;48.606;7.598;2023-12-20T01:49:50;8.95;75.28
76384;SHT30;65204;48.606;7.598;2023-12-20T01:50:21;8.97;75.26
76384;SHT30;65204;48.606;7.598;2023-12-20T01:50:52;8.98;75.21
76384;SHT30;65204;48.606;7.598;2023-12-20T01:51:22;8.97;75.16
76384;SHT30;65204;48.606;7.598;2023-12-20T01:51:53;9.00;75.17
76384;SHT30;65204;48.606;7.598;2023-12-20T01:52:25;9.00;75.12
76384;SHT30;65204;48.606;7.598;2023-12-20T01:52:58;9.00;75.19
76384;SHT30;65204;48.606;7.598;2023-12-20T01:53:31;9.00;75.17
76384;SHT30;65204;48.606;7.598;2023-12-20T01:54:03;9.02;75.14
76384;SHT30;65204;48.606;7.598;2023-12-20T01:54:35;9.04;75.17
76384;SHT30;65204;48.606;7.598;2023-12-20T01:55:06;9.02;75.13
76384;SHT30;65204;48.606;7.598;2023-12-20T01:55:43;9.04;75.14
76384;SHT30;65204;48.606;7.598;2023-12-20T01:56:15;9.02;75.18
76384;SHT30;65204;48.606;7.598;2023-12-20T01:56:46;9.00;75.27
76384;SHT30;65204;48.606;7.598;2023-12-20T01:57:16;9.02;75.22
76384;SHT30;65204;48.606;7.598;2023-12-20T01:57:47;9.01;75.30
76384;SHT30;65204;48.606;7.598;2023-12-20T01:58:18;9.01;75.28
76384;SHT30;65204;48.606;7.598;2023-12-20T01:58:49;9.02;75.27
76384;SHT30;65204;48.606;7.598;2023-12-20T01:59:20;9.04;75.30
76384;SHT30;65204;48.606;7.598;2023-12-20T01:59:51;9.00;75.40
76384;SHT30;65204;48.606;7.598;2023-12-20T02:00:23;9.01;75.29
76384;SHT30;65204;48.606;7.598;2023-12-20T02:00:54;9.02;75.26
76384;SHT30;65204;48.606;7.598;2023-12-20T02:01:24;9.04;75.18
76384;SHT30;65204;48.606;7.598;2023-12-20T02:01:55;9.11;75.12
76384;SHT30;65204;48.606;7.598;2023-12-20T02:02:27;9.07;75.17
76384;SHT30;65204;48.606;7.598;2023-12-20T02:03:01;9.07;75.09
76384;SHT30;65204;48.606;7.598;2023-12-20T02:03:31;9.05;75.20
76384;SHT30;65204;48.606;7.598;2023-12-20T02:04:02;9.07;75.13
76384;SHT30;65204;48.606;7.598;2023-12-20T02:04:33;9.07;75.15
76384;SHT30;65204;48.606;7.598;2023-12-20T02:05:04;9.11;75.11
76384;SHT30;65204;48.606;7.598;2023-12-20T02:05:35;9.11;75.09
76384;SHT30;65204;48.606;7.598;2023-12-20T02:06:07;9.10;75.19
76384;SHT30;65204;48.606;7.598;2023-12-20T02:06:40;9.11;75.11
76384;SHT30;65204;48.606;7.598;2023-12-20T02:07:11;9.12;75.06
76384;SHT30;65204;48.606;7.598;2023-12-20T02:07:41;9.12;75.01
76384;SHT30;65204;48.606;7.598;2023-12-20T02:08:12;9.15;74.98
76384;SHT30;65204;48.606;7.598;2023-12-20T02:08:42;9.18;74.94
76384;SHT30;65204;48.606;7.598;2023-12-20T02:09:12;9.12;75.06
76384;SHT30;65204;48.606;7.598;2023-12-20T02:09:43;9.10;75.09
76384;SHT30;65204;48.606;7.598;2023-12-20T02:10:13;9.10;75.12
76384;SHT30;65204;48.606;7.598;2023-12-20T02:10:44;9.07;75.22
76384;SHT30;65204;48.606;7.598;2023-12-20T02:11:14;9.07;75.29
76384;SHT30;65204;48.606;7.598;2023-12-20T02:11:45;9.07;75.22
76384;SHT30;65204;48.606;7.598;2023-12-20T02:12:15;9.07;75.21
76384;SHT30;65204;48.606;7.598;2023-12-20T02:12:45;9.08;75.27
76384;SHT30;65204;48.606;7.598;2023-12-20T02:13:16;9.11;75.25
76384;SHT30;65204;48.606;7.598;2023-12-20T02:13:46;9.07;75.25
76384;SHT30;65204;48.606;7.598;2023-12-20T02:14:16;9.08;75.25
76384;SHT30;65204;48.606;7.598;2023-12-20T02:14:47;9.10;75.18
76384;SHT30;65204;48.606;7.598;2023-12-20T02:15:18;9.08;75.18
76384;SHT30;65204;48.606;7.598;2023-12-20T02:15:48;9.11;75.20
76384;SHT30;65204;48.606;7.598;2023-12-20T02:16:19;9.10;75.22
76384;SHT30;65204;48.606;7.598;2023-12-20T02:16:49;9.08;75.20
76384;SHT30;65204;48.606;7.598;2023-12-20T02:17:20;9.10;75.15
76384;SHT30;65204;48.606;7.598;2023-12-20T02:17:50;9.11;75.13
76384;SHT30;65204;48.606;7.598;2023-12-20T02:18:21;9.11;75.15
76384;SHT30;65204;48.606;7.598;2023-12-20T02:18:51;9.14;75.11
76384;SHT30;65204;48.606;7.598;2023-12-20T02:19:22;9.14;75.08
76384;SHT30;65204;48.606;7.598;2023-12-20T02:19:52;9.14;75.06
76384;SHT30;65204;48.606;7.598;2023-12-20T02:20:22;9.15;75.03
76384;SHT30;65204;48.606;7.598;2023-12-20T02:20:52;9.14;75.06
76384;SHT30;65204;48.606;7.598;2023-12-20T02:21:33;9.11;74.97
76384;SHT30;65204;48.606;7.598;2023-12-20T02:22:11;9.12;75.05
76384;SHT30;65204;48.606;7.598;2023-12-20T02:22:41;9.12;75.03
76384;SHT30;65204;48.606;7.598;2023-12-20T02:23:12;9.15;74.98
76384;SHT30;65204;48.606;7.598;2023-12-20T02:23:42;9.14;74.98
76384;SHT30;65204;48.606;7.598;2023-12-20T02:24:12;9.15;75.06
76384;SHT30;65204;48.606;7.598;2023-12-20T02:24:43;9.12;75.14
76384;SHT30;65204;48.606;7.598;2023-12-20T02:25:13;9.12;75.15
76384;SHT30;65204;48.606;7.598;2023-12-20T02:25:43;9.12;75.22
76384;SHT30;65204;48.606;7.598;2023-12-20T02:26:14;9.11;75.23
76384;SHT30;65204;48.606;7.598;2023-12-20T02:26:45;9.14;75.20
76384;SHT30;65204;48.606;7.598;2023-12-20T02:27:17;9.14;75.15
76384;SHT30;65204;48.606;7.598;2023-12-20T02:27:49;9.15;75.08
76384;SHT30;65204;48.606;7.598;2023-12-20T02:28:20;9.15;75.10
76384;SHT30;65204;48.606;7.598;2023-12-20T02:28:52;9.16;75.08
76384;SHT30;65204;48.606;7.598;2023-12-20T02:29:22;9.16;74.96
76384;SHT30;65204;48.606;7.598;2023-12-20T02:29:53;9.18;74.99
76384;SHT30;65204;48.606;7.598;2023-12-20T02:30:23;9.15;75.07
76384;SHT30;65204;48.606;7.598;2023-12-20T02:30:53;9.18;75.05
76384;SHT30;65204;48.606;7.598;2023-12-20T02:31:24;9.18;75.00
76384;SHT30;65204;48.606;7.598;2023-12-20T02:31:54;9.16;75.07
76384;SHT30;65204;48.606;7.598;2023-12-20T02:32:25;9.16;75.02
76384;SHT30;65204;48.606;7.598;2023-12-20T02:33:03;9.11;75.10
76384;SHT30;65204;48.606;7.598;2023-12-20T02:33:37;9.11;75.19
76384;SHT30;65204;48.606;7.598;2023-12-20T02:34:09;9.16;75.18
76384;SHT30;65204;48.606;7.598;2023-12-20T02:34:39;9.15;75.14
76384;SHT30;65204;48.606;7.598;2023-12-20T02:35:10;9.15;75.16
76384;SHT30;65204;48.606;7.598;2023-12-20T02:35:40;9.16;75.15
76384;SHT30;65204;48.606;7.598;2023-12-20T02:36:11;9.19;75.11
76384;SHT30;65204;48.606;7.598;2023-12-20T02:36:41;9.18;75.06
76384;SHT30;65204;48.606;7.598;2023-12-20T02:37:11;9.18;75.12
76384;SHT30;65204;48.606;7.598;2023-12-20T02:37:41;9.18;75.14
76384;SHT30;65204;48.606;7.598;2023-12-20T02:38:12;9.15;75.20
76384;SHT30;65204;48.606;7.598;2023-12-20T02:38:42;9.16;75.25
76384;SHT30;65204;48.606;7.598;2023-12-20T02:39:13;9.15;75.23
76384;SHT30;65204;48.606;7.598;2023-12-20T02:39:44;9.12;75.31
76384;SHT30;65204;48.606;7.598;2023-12-20T02:40:14;9.12;75.37
76384;SHT30;65204;48.606;7.598;2023-12-20T02:40:44;9.11;75.33
76384;SHT30;65204;48.606;7.598;2023-12-20T02:41:15;9.10;75.28
76384;SHT30;65204;48.606;7.598;2023-12-20T02:41:48;9.14;75.25
76384;SHT30;65204;48.606;7.598;2023-12-20T02:42:18;9.12;75.28
76384;SHT30;65204;48.606;7.598;2023-12-20T02:42:49;9.11;75.38
76384;SHT30;65204;48.606;7.598;2023-12-20T02:43:19;9.10;75.47
76384;SHT30;65204;48.606;7.598;2023-12-20T02:43:49;9.10;75.33
76384;SHT30;65204;48.606;7.598;2023-12-20T02:44:19;9.11;75.30
76384;SHT30;65204;48.606;7.598;2023-12-20T02:44:50;9.12;75.27
76384;SHT30;65204;48.606;7.598;2023-12-20T02:45:20;9.12;75.27
76384;SHT30;65204;48.606;7.598;2023-12-20T02:45:50;9.12;75.23
76384;SHT30;65204;48.606;7.598;2023-12-20T02:46:21;9.15;75.22
76384;SHT30;65204;48.606;7.598;2023-12-20T02:46:51;9.14;75.28
76384;SHT30;65204;48.606;7.598;2023-12-20T02:47:21;9.15;75.34
76384;SHT30;65204;48.606;7.598;2023-12-20T02:47:52;9.14;75.26
76384;SHT30;65204;48.606;7.598;2023-12-20T02:48:22;9.15;75.23
76384;SHT30;65204;48.606;7.598;2023-12-20T02:48:52;9.15;75.26
76384;SHT30;65204;48.606;7.598;2023-12-20T02:49:23;9.16;75.26
76384;SHT30;65204;48.606;7.598;2023-12-20T02:49:53;9.18;75.19
76384;SHT30;65204;48.606;7.598;2023-12-20T02:50:24;9.19;75.18
76384;SHT30;65204;48.606;7.598;2023-12-20T02:50:54;9.15;75.21
76384;SHT30;65204;48.606;7.598;2023-12-20T02:51:24;9.16;75.29
76384;SHT30;65204;48.606;7.598;2023-12-20T02:51:55;9.19;75.27
76384;SHT30;65204;48.606;7.598;2023-12-20T02:52:25;9.18;75.24
76384;SHT30;65204;48.606;7.598;2023-12-20T02:52:56;9.15;75.24
76384;SHT30;65204;48.606;7.598;2023-12-20T02:53:26;9.16;75.29
76384;SHT30;65204;48.606;7.598;2023-12-20T02:53:56;9.18;75.23
76384;SHT30;65204;48.606;7.598;2023-12-20T02:54:27;9.15;75.30
76384;SHT30;65204;48.606;7.598;2023-12-20T02:54:57;9.16;75.35
76384;SHT30;65204;48.606;7.598;2023-12-20T02:55:27;9.16;75.40
76384;SHT30;65204;48.606;7.598;2023-12-20T02:55:58;9.15;75.41
76384;SHT30;65204;48.606;7.598;2023-12-20T02:56:28;9.16;75.47
76384;SHT30;65204;48.606;7.598;2023-12-20T02:56:58;9.15;75.40
76384;SHT30;65204;48.606;7.598;2023-12-20T02:57:29;9.15;75.52
76384;SHT30;65204;48.606;7.598;2023-12-20T02:57:59;9.14;75.49
76384;SHT30;65204;48.606;7.598;2023-12-20T02:58:29;9.14;75.50
76384;SHT30;65204;48.606;7.598;2023-12-20T02:59:00;9.16;75.43
76384;SHT30;65204;48.606;7.598;2023-12-20T02:59:30;9.14;75.57
76384;SHT30;65204;48.606;7.598;2023-12-20T03:00:00;9.14;75.62
76384;SHT30;65204;48.606;7.598;2023-12-20T03:00:31;9.15;75.66
76384;SHT30;65204;48.606;7.598;2023-12-20T03:01:01;9.12;75.67
76384;SHT30;65204;48.606;7.598;2023-12-20T03:01:32;9.12;75.62
76384;SHT30;65204;48.606;7.598;2023-12-20T03:02:02;9.14;75.61
76384;SHT30;65204;48.606;7.598;2023-12-20T03:02:32;9.16;75.56
76384;SHT30;65204;48.606;7.598;2023-12-20T03:03:03;9.16;75.50
76384;SHT30;65204;48.606;7.598;2023-12-20T03:03:33;9.18;75.51
76384;SHT30;65204;48.606;7.598;2023-12-20T03:04:04;9.19;75.53
76384;SHT30;65204;48.606;7.598;2023-12-20T03:04:34;9.18;75.57
76384;SHT30;65204;48.606;7.598;2023-12-20T03:05:04;9.18;75.59
76384;SHT30;65204;48.606;7.598;2023-12-20T03:05:35;9.18;75.62
76384;SHT30;65204;48.606;7.598;2023-12-20T03:06:06;9.16;75.60
76384;SHT30;65204;48.606;7.598;2023-12-20T03:06:36;9.16;75.54
76384;SHT30;65204;48.606;7.598;2023-12-20T03:07:07;9.19;75.65
76384;SHT30;65204;48.606;7.598;2023-12-20T03:07:37;9.19;75.70
76384;SHT30;65204;48.606;7.598;2023-12-20T03:08:08;9.22;75.61
76384;SHT30;65204;48.606;7.598;2023-12-20T03:08:38;9.21;75.57
76384;SHT30;65204;48.606;7.598;2023-12-20T03:09:11;9.19;75.60
76384;SHT30;65204;48.606;7.598;2023-12-20T03:09:41;9.21;75.57
76384;SHT30;65204;48.606;7.598;2023-12-20T03:10:11;9.21;75.55
76384;SHT30;65204;48.606;7.598;2023-12-20T03:10:42;9.22;75.51
76384;SHT30;65204;48.606;7.598;2023-12-20T03:11:12;9.25;75.49
76384;SHT30;65204;48.606;7.598;2023-12-20T03:11:42;9.23;75.42
76384;SHT30;65204;48.606;7.598;2023-12-20T03:12:13;9.26;75.37
76384;SHT30;65204;48.606;7.598;2023-12-20T03:12:43;9.28;75.43
76384;SHT30;65204;48.606;7.598;2023-12-20T03:13:13;9.29;75.42
76384;SHT30;65204;48.606;7.598;2023-12-20T03:13:44;9.28;75.41
76384;SHT30;65204;48.606;7.598;2023-12-20T03:14:14;9.29;75.44
76384;SHT30;65204;48.606;7.598;2023-12-20T03:14:45;9.28;75.48
76384;SHT30;65204;48.606;7.598;2023-12-20T03:15:15;9.28;75.41
76384;SHT30;65204;48.606;7.598;2023-12-20T03:15:46;9.28;75.48
76384;SHT30;65204;48.606;7.598;2023-12-20T03:16:16;9.29;75.43
76384;SHT30;65204;48.606;7.598;2023-12-20T03:16:49;9.31;75.41